Airfield :
LOGIN :

Register | Disclaimer

   EN    FR    IT 

 










Legend :    VFR   Marginal VFR   IFR   Intensive IFR   Very Intensive IFR
Visi :
Ceiling :
>= 8 km
>= 3000ft
5 to 8 km
1000 to 3000 ft
1500m to 5 km
500 to 1000 ft
800 to 1500m
200 to 500 ft
< 800m
< 200 ft
Symbols :   Thunderstorms  Fog  Heavy snow  Heavy precipitations  Wind > 20 kt
SIGMETs :     Misc.  Thunderstorms  Icing  Turbulence  Mountain Waves  Volcanic Ashes







- Airport Elevation : 47 ft
- IATA code : CBG
- Download approach charts


EGSC - Cambridge

CURRENT METAR :
  • 181020Z 17018KT 9999 FEW020 10/06 Q1011

EXPIRED METARs :
  • 180950Z 18019KT 9999 SCT020 10/06 Q1012
  • 180920Z 17017KT 9999 BKN019 10/06 Q1012
  • 180850Z 17018KT 9999 BKN019 10/07 Q1012
  • 180820Z 17018KT 9999 BKN019 10/07 Q1012
  • 180750Z 17015KT 9999 SCT019 10/07 Q1012
  • 180720Z 17017KT 9999 SCT019 10/07 Q1012

TAF TAF EGSC
Valid from the 18 at 08:00 until the 18 at 15:00 UTC


180806Z 1808/1815 17013KT 9999 SCT020
BECMG 1808/1811 17020G32KT
PROB30
TEMPO 1808/1815 BKN012
No reported NOTAMs for that airfield.
2 SIGMETs reported for the London FIR (EGTT) :
 
Severe mountain waves
EGTT SIGMET 04 VALID 180700/181100 EGRR
EGTT LONDON FIR SEV MTW FCST WI N5220 W00530 - N5500 W00530 - N5500 W00015 - N5024 W00255 - N4959 W00548 - N5220 W00530 - N5220 W00530 FL030/250 STNR NC=
Severe turbulence
EGTT SIGMET 03 VALID 180700/181100 EGRR
EGTT LONDON FIR SEV TURB FCST WI N4850 W00800 - N5100 W00800 - N5220 W00530 - N5500 W00530 - N5500 W00247 - N5101 W00311 - N4958 W00208 - N4850 W00800 SFC/FL060 MOV E 10KT NC=



MET'MAP, your aeronautical weather chart ! - Copyright ORBIFLY December 2007 - Disclaimer

ORBIFLY MET'MAP TEAM :

Programming & Development : Alexandra Zaïnal
Concept & Development : Baudouin d'Aumeries
Co-Development & Prog : Marc-Olivier Méhu
Technical & hardware support : Manuel Goepfert

Contact : metmap@orbifly.com




SOURCES & CREDITS :

   NOAA